createdAt,value
2019-04-23T00:01:07.882Z,30.20
2019-04-23T00:03:53.202Z,30.20
2019-04-23T00:07:12.968Z,30.20
2019-04-23T00:09:38.594Z,30.20
2019-04-23T00:12:43.694Z,30.20
2019-04-23T00:15:33.484Z,30.20
2019-04-23T00:21:48.574Z,30.20
2019-04-23T00:27:45.785Z,30.20
2019-04-23T00:30:44.319Z,30.20
2019-04-23T00:33:29.579Z,30.20
2019-04-23T00:36:36.402Z,30.20
2019-04-23T00:39:16.713Z,30.20
2019-04-23T00:42:17.271Z,30.20
2019-04-23T00:45:00.428Z,30.20
2019-04-23T00:48:19.879Z,30.20
2019-04-23T00:51:09.191Z,30.20
2019-04-23T00:54:02.674Z,30.20
2019-04-23T00:56:57.142Z,30.20
2019-04-23T00:59:48.280Z,30.20
2019-04-23T01:02:43.850Z,30.20
2019-04-23T01:05:30.996Z,30.20
2019-04-23T01:08:27.908Z,30.20
2019-04-23T01:11:21.216Z,30.20
2019-04-23T01:14:13.742Z,30.20
2019-04-23T01:17:17.259Z,30.20
2019-04-23T01:20:21.000Z,30.20
2019-04-23T01:22:58.974Z,30.20
2019-04-23T01:25:58.836Z,30.20
2019-04-23T01:29:14.103Z,30.20
2019-04-23T01:32:12.115Z,30.20
2019-04-23T01:35:07.299Z,30.20
2019-04-23T01:37:56.128Z,30.20
2019-04-23T01:41:00.405Z,30.20
2019-04-23T01:43:41.088Z,30.20
2019-04-23T01:46:40.015Z,30.10
2019-04-23T01:49:54.673Z,30.10
2019-04-23T01:52:29.340Z,30.10
2019-04-23T01:55:17.158Z,30.20
2019-04-23T02:06:53.717Z,30.10
2019-04-23T02:09:52.881Z,30.10
2019-04-23T02:12:42.008Z,30.10
2019-04-23T02:15:29.927Z,30.10
2019-04-23T02:18:24.987Z,30.10
2019-04-23T02:21:15.014Z,30.00
2019-04-23T02:24:15.953Z,30.10
2019-04-23T02:27:13.341Z,30.00
2019-04-23T02:30:20.838Z,30.10
2019-04-23T02:33:10.987Z,30.00
2019-04-23T02:38:52.360Z,30.00
2019-04-23T02:41:46.418Z,30.00
2019-04-23T02:44:35.036Z,30.10
2019-04-23T02:47:34.843Z,30.00
2019-04-23T02:56:10.512Z,30.00
2019-04-23T02:59:14.517Z,30.00
2019-04-23T03:02:12.194Z,30.00
2019-04-23T03:05:00.789Z,30.10
2019-04-23T03:10:42.784Z,30.10
2019-04-23T03:13:34.932Z,30.10
2019-04-23T03:19:47.544Z,30.10
2019-04-23T03:22:56.113Z,30.10
2019-04-23T03:40:37.063Z,30.20
2019-04-23T03:49:21.824Z,30.20
2019-04-23T03:52:24.981Z,30.20
2019-04-23T03:55:16.240Z,30.20
2019-04-23T03:58:05.038Z,30.30
2019-04-23T04:00:58.815Z,30.30
2019-04-23T04:09:45.888Z,30.30
2019-04-23T04:15:46.993Z,30.40
2019-04-23T04:18:31.054Z,30.30
2019-04-23T04:21:29.919Z,30.40
2019-04-23T04:24:22.490Z,30.40
2019-04-23T04:27:06.042Z,29.80
2019-04-23T04:32:58.939Z,28.00
2019-04-23T04:35:39.048Z,27.50
2019-04-23T04:38:40.257Z,27.00
2019-04-23T04:44:38.368Z,26.40
2019-04-23T04:47:33.839Z,26.20
2019-04-23T04:53:10.253Z,25.90
2019-04-23T04:56:07.892Z,25.80
2019-04-23T04:58:56.414Z,25.70
2019-04-23T05:01:48.322Z,25.60
2019-04-23T05:04:53.952Z,25.70
2019-04-23T05:10:38.705Z,26.90
2019-04-23T05:13:39.157Z,27.30
2019-04-23T05:16:15.956Z,27.60
2019-04-23T05:22:06.620Z,28.10
2019-04-23T05:25:01.988Z,28.40
2019-04-23T05:28:08.960Z,28.70
2019-04-23T05:33:55.305Z,29.00
2019-04-23T05:39:52.013Z,29.20
2019-04-23T05:42:47.258Z,29.30
2019-04-23T05:45:41.373Z,29.40
2019-04-23T05:48:38.362Z,29.40
2019-04-23T05:51:38.233Z,29.50
2019-04-23T05:54:26.676Z,29.60
2019-04-23T05:57:14.338Z,29.60
2019-04-23T06:00:17.494Z,29.70
2019-04-23T06:03:16.268Z,29.70
2019-04-23T06:06:11.295Z,29.80
2019-04-23T06:08:58.633Z,29.80
2019-04-23T06:11:56.980Z,29.90
2019-04-23T06:14:55.596Z,29.90
2019-04-23T06:17:47.499Z,29.90
2019-04-23T06:20:48.635Z,30.00
2019-04-23T06:23:52.055Z,30.00
2019-04-23T06:29:30.655Z,30.00
2019-04-23T06:32:22.616Z,30.00
2019-04-23T06:35:09.994Z,30.10
2019-04-23T06:41:06.827Z,30.20
2019-04-23T06:44:19.544Z,30.20
2019-04-23T06:47:16.583Z,30.20
2019-04-23T06:50:08.187Z,30.20
2019-04-23T06:53:04.106Z,30.30
2019-04-23T06:56:11.757Z,30.30
2019-04-23T06:59:09.684Z,30.30
2019-04-23T07:02:22.336Z,30.30
2019-04-23T07:05:03.489Z,30.40
2019-04-23T07:07:59.519Z,30.40
2019-04-23T07:10:55.509Z,30.40
2019-04-23T07:13:53.442Z,30.40
2019-04-23T07:16:52.707Z,30.40
2019-04-23T07:19:58.101Z,30.50
2019-04-23T07:22:59.870Z,30.50
2019-04-23T07:26:07.562Z,30.50
2019-04-23T07:28:56.463Z,30.50
2019-04-23T07:31:54.680Z,30.50
2019-04-23T07:34:55.942Z,30.50
2019-04-23T07:37:56.899Z,30.50
2019-04-23T07:41:09.670Z,30.50
2019-04-23T07:44:35.519Z,30.60
2019-04-23T07:48:03.838Z,30.60
2019-04-23T07:54:48.778Z,30.60
2019-04-23T08:06:56.015Z,30.60
2019-04-23T08:09:53.347Z,30.60
2019-04-23T08:12:53.852Z,30.60
2019-04-23T08:16:19.651Z,30.70
2019-04-23T08:18:57.367Z,30.70
2019-04-23T08:22:15.529Z,30.60
2019-04-23T08:25:11.001Z,30.60
2019-04-23T08:28:12.054Z,30.60
2019-04-23T08:30:59.133Z,30.40
2019-04-23T08:34:15.020Z,30.00
2019-04-23T08:39:52.467Z,29.80
2019-04-23T08:43:17.376Z,29.70
2019-04-23T08:45:58.153Z,29.70
2019-04-23T08:48:59.839Z,29.60
2019-04-23T08:51:54.786Z,29.60
2019-04-23T08:57:56.586Z,29.40
2019-04-23T09:00:58.590Z,29.20
2019-04-23T09:03:49.319Z,29.20
2019-04-23T09:06:53.383Z,29.10
2019-04-23T09:21:27.958Z,29.00
2019-04-23T09:24:22.298Z,29.00
2019-04-23T09:27:23.287Z,29.00
2019-04-23T09:30:14.184Z,28.90
2019-04-23T09:33:31.098Z,28.90
2019-04-23T09:37:01.181Z,28.90
2019-04-23T09:40:13.967Z,28.80
2019-04-23T09:43:33.228Z,28.80
2019-04-23T09:46:55.784Z,28.80
2019-04-23T09:49:39.451Z,28.80
2019-04-23T09:52:46.507Z,28.80
2019-04-23T09:58:30.064Z,28.80
2019-04-23T10:01:26.019Z,28.80
2019-04-23T10:04:08.766Z,28.80
2019-04-23T10:07:05.468Z,28.80
2019-04-23T10:09:48.339Z,28.70
2019-04-23T10:12:44.024Z,28.70
2019-04-23T10:15:41.141Z,28.70
2019-04-23T10:18:33.071Z,28.70
2019-04-23T10:21:29.287Z,28.70
2019-04-23T10:24:25.213Z,28.70
2019-04-23T10:27:25.164Z,28.70
2019-04-23T10:30:17.572Z,28.70
2019-04-23T10:33:13.844Z,28.70
2019-04-23T10:36:13.070Z,28.70
2019-04-23T10:39:10.622Z,28.70
2019-04-23T10:41:57.546Z,28.80
2019-04-23T10:45:26.858Z,28.70
2019-04-23T10:51:59.231Z,28.70
2019-04-23T10:54:43.390Z,28.70
2019-04-23T10:57:39.251Z,28.70
2019-04-23T11:00:28.265Z,28.70
2019-04-23T11:03:42.095Z,28.70
2019-04-23T11:06:23.780Z,28.70
2019-04-23T11:09:36.607Z,28.70
2019-04-23T11:18:46.784Z,28.80
2019-04-23T11:21:34.295Z,28.70
2019-04-23T11:27:30.936Z,28.70
2019-04-23T11:33:16.156Z,28.80
2019-04-23T11:36:43.487Z,28.70
2019-04-23T11:38:58.925Z,28.60
2019-04-23T11:42:06.148Z,28.60
2019-04-23T11:44:56.710Z,28.60
2019-04-23T11:51:20.832Z,28.70
2019-04-23T11:57:04.753Z,28.60
2019-04-23T11:59:36.427Z,28.60
2019-04-23T12:02:51.243Z,28.70
2019-04-23T12:06:00.549Z,28.60
2019-04-23T12:09:25.367Z,28.60
2019-04-23T12:15:13.511Z,28.70
2019-04-23T12:18:00.449Z,29.00
2019-04-23T12:21:12.716Z,29.20
2019-04-23T12:24:24.761Z,29.40
2019-04-23T12:27:00.988Z,29.50
2019-04-23T12:30:09.730Z,29.60
2019-04-23T12:32:59.344Z,29.80
2019-04-23T12:35:40.783Z,29.70
2019-04-23T12:38:41.018Z,29.70
2019-04-23T12:41:41.642Z,29.80
2019-04-23T12:44:38.677Z,29.80
2019-04-23T12:53:37.736Z,29.90
2019-04-23T12:59:44.371Z,30.00
2019-04-23T13:05:38.939Z,30.00
2019-04-23T13:14:57.588Z,30.20
2019-04-23T13:18:17.304Z,30.20
2019-04-23T13:20:39.957Z,30.20
2019-04-23T13:26:30.902Z,30.20
2019-04-23T13:29:43.558Z,30.20
2019-04-23T13:32:38.863Z,30.20
2019-04-23T13:35:45.559Z,30.30
2019-04-23T13:44:15.735Z,30.30
2019-04-23T13:47:22.311Z,30.30
2019-04-23T13:50:20.431Z,30.20
2019-04-23T13:53:28.974Z,30.30
2019-04-23T13:55:59.198Z,30.30
2019-04-23T13:58:53.159Z,30.30
2019-04-23T14:01:40.079Z,30.30
2019-04-23T14:04:56.008Z,30.30
2019-04-23T14:07:48.595Z,30.30
2019-04-23T14:10:43.503Z,30.30
2019-04-23T14:13:45.628Z,30.30
2019-04-23T14:16:34.339Z,30.30
2019-04-23T14:19:23.189Z,30.30
2019-04-23T14:22:48.803Z,30.20
2019-04-23T14:25:24.688Z,30.20
2019-04-23T14:31:04.739Z,30.20
2019-04-23T14:36:57.521Z,30.20
2019-04-23T14:39:52.770Z,30.20
2019-04-23T14:42:56.759Z,30.20
2019-04-23T14:46:15.155Z,30.20
2019-04-23T14:48:45.846Z,30.20
2019-04-23T14:57:34.168Z,30.20
2019-04-23T15:00:26.968Z,30.20
2019-04-23T15:03:19.763Z,30.20
2019-04-23T15:06:19.845Z,30.20
2019-04-23T15:12:02.170Z,30.20
2019-04-23T15:15:02.849Z,30.30
2019-04-23T15:17:49.300Z,30.20
2019-04-23T15:21:08.459Z,30.30
2019-04-23T15:24:03.968Z,30.30
2019-04-23T15:29:24.840Z,30.20
2019-04-23T15:32:34.482Z,30.30
2019-04-23T15:35:31.348Z,30.30
2019-04-23T15:38:36.019Z,30.30
2019-04-23T15:41:15.464Z,30.20
2019-04-23T15:44:10.407Z,30.30
2019-04-23T15:47:02.026Z,30.30
2019-04-23T15:50:01.298Z,30.30
2019-04-23T15:52:55.371Z,30.30
2019-04-23T15:58:49.581Z,30.30
2019-04-23T16:03:59.114Z,30.30
2019-04-23T16:06:51.901Z,30.30
2019-04-23T16:10:19.077Z,30.30
2019-04-23T16:13:29.369Z,30.30
2019-04-23T16:16:10.533Z,30.30
2019-04-23T16:19:24.529Z,30.30
2019-04-23T16:22:18.541Z,30.30
2019-04-23T16:25:13.326Z,30.30
2019-04-23T16:28:09.130Z,30.30
2019-04-23T16:31:15.053Z,30.30
2019-04-23T16:34:25.628Z,30.30
2019-04-23T16:37:22.745Z,30.30
2019-04-23T16:43:08.952Z,30.30
2019-04-23T16:46:00.395Z,30.30
2019-04-23T16:51:57.546Z,30.30
2019-04-23T16:54:53.537Z,30.30
2019-04-23T17:00:31.233Z,30.30
2019-04-23T17:03:31.914Z,30.30
2019-04-23T17:09:27.118Z,30.30
2019-04-23T17:12:09.343Z,30.30
2019-04-23T17:15:03.277Z,30.30
2019-04-23T17:17:55.731Z,30.30
2019-04-23T17:23:55.240Z,30.30
2019-04-23T17:26:35.677Z,30.40
2019-04-23T17:29:28.630Z,30.40
2019-04-23T17:32:20.847Z,30.40
2019-04-23T17:38:38.958Z,30.30
2019-04-23T17:50:52.772Z,30.40
2019-04-23T17:53:40.460Z,30.40
2019-04-23T17:59:52.120Z,30.40
2019-04-23T18:02:55.211Z,30.40
2019-04-23T18:05:33.140Z,30.40
2019-04-23T18:08:29.085Z,30.40
2019-04-23T18:14:11.479Z,30.40
2019-04-23T18:17:12.964Z,30.40
2019-04-23T18:26:15.722Z,30.40
2019-04-23T18:29:17.320Z,30.40
2019-04-23T18:32:35.995Z,30.40
2019-04-23T18:35:33.773Z,30.40
2019-04-23T18:38:26.120Z,30.40
2019-04-23T18:41:35.067Z,30.40
2019-04-23T18:44:15.485Z,30.40
2019-04-23T18:47:07.242Z,30.40
2019-04-23T18:50:02.275Z,30.40
2019-04-23T18:52:58.427Z,30.40
2019-04-23T18:56:05.583Z,30.40
2019-04-23T19:01:36.536Z,30.40
2019-04-23T19:05:15.408Z,30.40
2019-04-23T19:11:23.323Z,30.40
2019-04-23T19:14:24.581Z,30.40
2019-04-23T19:17:36.033Z,30.40
2019-04-23T19:20:01.048Z,30.40
2019-04-23T19:23:04.748Z,30.40
2019-04-23T19:25:46.837Z,30.40
2019-04-23T19:28:50.260Z,30.40
2019-04-23T19:32:00.613Z,30.40
2019-04-23T19:34:52.963Z,30.40
2019-04-23T19:38:05.826Z,30.40
2019-04-23T19:40:51.985Z,30.40
2019-04-23T19:43:42.885Z,30.40
2019-04-23T19:46:50.570Z,30.40
2019-04-23T19:49:35.731Z,30.40
2019-04-23T19:52:18.727Z,30.40
2019-04-23T19:55:08.558Z,30.40
2019-04-23T19:58:04.214Z,30.40
2019-04-23T20:01:12.116Z,30.40
2019-04-23T20:07:06.099Z,30.40
2019-04-23T20:12:39.042Z,30.40
2019-04-23T20:15:41.157Z,30.40
2019-04-23T20:18:33.550Z,30.40
2019-04-23T20:21:12.473Z,30.40
2019-04-23T20:24:21.552Z,30.40
2019-04-23T20:27:18.006Z,30.40
2019-04-23T20:30:21.294Z,30.40
2019-04-23T20:36:07.001Z,30.40
2019-04-23T20:50:34.159Z,30.40
2019-04-23T20:53:36.323Z,30.40
2019-04-23T20:56:25.347Z,30.40
2019-04-23T20:59:13.812Z,30.40
2019-04-23T21:05:21.665Z,30.40
2019-04-23T21:08:17.193Z,30.40
2019-04-23T21:11:05.389Z,30.40
2019-04-23T21:14:15.208Z,30.40
2019-04-23T21:16:56.056Z,30.40
2019-04-23T21:20:04.713Z,30.40
2019-04-23T21:22:55.862Z,30.40
2019-04-23T21:28:44.358Z,30.40
2019-04-23T21:31:35.488Z,30.40
2019-04-23T21:34:32.021Z,30.40
2019-04-23T21:41:09.290Z,30.40
2019-04-23T21:46:45.859Z,30.40
2019-04-23T21:49:47.086Z,30.40
2019-04-23T21:52:36.223Z,30.40
2019-04-23T21:55:36.493Z,30.40
2019-04-23T22:01:27.907Z,30.40
2019-04-23T22:07:29.733Z,30.40
2019-04-23T22:10:03.174Z,30.30
2019-04-23T22:16:01.800Z,30.40
2019-04-23T22:18:57.141Z,30.30
2019-04-23T22:21:41.138Z,30.30
2019-04-23T22:24:27.409Z,30.30
2019-04-23T22:27:16.732Z,30.30
2019-04-23T22:30:17.097Z,30.30
2019-04-23T22:33:09.521Z,30.30
2019-04-23T22:36:11.316Z,30.30
2019-04-23T22:41:59.708Z,30.30
2019-04-23T22:47:42.161Z,30.30
2019-04-23T22:50:41.529Z,30.30
2019-04-23T22:53:46.366Z,30.30
2019-04-23T22:56:13.805Z,30.30
2019-04-23T22:59:21.969Z,30.30
2019-04-23T23:02:25.405Z,30.30
2019-04-23T23:08:14.656Z,30.30
2019-04-23T23:11:02.743Z,30.30
2019-04-23T23:14:09.894Z,30.30
2019-04-23T23:16:45.293Z,30.30
2019-04-23T23:19:49.367Z,30.30
2019-04-23T23:22:51.792Z,30.30
2019-04-23T23:31:29.930Z,30.30
2019-04-23T23:34:07.869Z,30.30
2019-04-23T23:40:07.021Z,30.30
2019-04-23T23:43:05.495Z,30.30
2019-04-23T23:45:57.388Z,30.30
2019-04-23T23:48:40.695Z,30.30
2019-04-23T23:51:43.498Z,30.30
2019-04-23T23:54:55.909Z,30.30
2019-04-23T23:57:23.553Z,30.30
